createdAt,value
2019-03-06T00:02:20.480Z,20.77
2019-03-06T00:04:50.423Z,18.20
2019-03-06T00:07:21.389Z,18.85
2019-03-06T00:09:51.751Z,16.10
2019-03-06T00:12:24.027Z,15.68
2019-03-06T00:14:54.986Z,17.40
2019-03-06T00:17:24.947Z,15.70
2019-03-06T00:19:57.371Z,15.53
2019-03-06T00:22:26.958Z,14.17
2019-03-06T00:24:56.886Z,12.37
2019-03-06T00:27:26.755Z,12.23
2019-03-06T00:29:56.599Z,12.03
2019-03-06T00:32:26.483Z,12.90
2019-03-06T00:34:58.888Z,8.57
2019-03-06T00:37:28.086Z,11.73
2019-03-06T00:39:59.546Z,10.17
2019-03-06T00:42:30.481Z,12.90
2019-03-06T00:45:01.386Z,11.57
2019-03-06T00:47:34.175Z,9.43
2019-03-06T00:50:04.126Z,11.47
2019-03-06T00:52:36.551Z,13.53
2019-03-06T00:55:09.335Z,14.93
2019-03-06T00:57:40.734Z,13.70
2019-03-06T01:00:12.590Z,15.67
2019-03-06T01:02:42.468Z,15.40
2019-03-06T01:05:15.161Z,14.70
2019-03-06T01:07:47.535Z,16.87
2019-03-06T01:10:19.614Z,18.03
2019-03-06T01:12:49.523Z,19.40
2019-03-06T01:15:20.040Z,20.57
2019-03-06T01:17:50.795Z,21.40
2019-03-06T01:20:21.720Z,22.70
2019-03-06T01:22:52.860Z,20.83
2019-03-06T01:25:23.784Z,20.08
2019-03-06T01:27:53.540Z,20.10
2019-03-06T01:30:33.458Z,21.17
2019-03-06T01:33:14.654Z,21.73
2019-03-06T01:35:54.658Z,22.63
2019-03-06T01:38:29.051Z,21.17
2019-03-06T01:41:17.907Z,22.90
2019-03-06T01:43:50.615Z,23.18
2019-03-06T01:46:24.711Z,22.03
2019-03-06T01:48:55.754Z,22.20
2019-03-06T01:51:27.658Z,22.50
2019-03-06T01:54:01.053Z,21.37
2019-03-06T01:56:33.296Z,21.17
2019-03-06T01:59:03.144Z,25.27
2019-03-06T02:01:33.106Z,21.13
2019-03-06T02:04:05.771Z,21.37
2019-03-06T02:06:35.585Z,21.83
2019-03-06T02:09:09.137Z,20.30
2019-03-06T02:11:42.459Z,23.10
2019-03-06T02:14:13.593Z,22.47
2019-03-06T02:16:45.936Z,23.07
2019-03-06T02:19:15.875Z,24.13
2019-03-06T02:21:44.944Z,21.70
2019-03-06T02:24:15.923Z,22.13
2019-03-06T02:26:50.122Z,20.90
2019-03-06T02:29:19.903Z,22.93
2019-03-06T02:31:49.223Z,21.07
2019-03-06T02:34:21.567Z,20.27
2019-03-06T02:36:53.055Z,23.67
2019-03-06T02:39:23.045Z,22.55
2019-03-06T02:41:54.454Z,24.40
2019-03-06T02:44:24.515Z,20.57
2019-03-06T02:46:55.872Z,20.70
2019-03-06T02:49:26.842Z,21.97
2019-03-06T02:51:58.166Z,22.20
2019-03-06T02:54:29.113Z,21.50
2019-03-06T02:56:59.457Z,22.43
2019-03-06T02:59:34.024Z,21.37
2019-03-06T03:02:07.960Z,21.03
2019-03-06T03:04:42.177Z,21.87
2019-03-06T03:07:14.200Z,22.17
2019-03-06T03:09:43.488Z,21.70
2019-03-06T03:12:14.566Z,21.13
2019-03-06T03:14:45.608Z,23.50
2019-03-06T03:17:16.528Z,22.77
2019-03-06T03:19:48.919Z,23.07
2019-03-06T03:22:21.941Z,24.07
2019-03-06T03:24:54.107Z,22.20
2019-03-06T03:27:25.086Z,20.77
2019-03-06T03:29:55.907Z,20.97
2019-03-06T03:32:25.794Z,21.87
2019-03-06T03:35:00.677Z,21.97
2019-03-06T03:37:33.333Z,23.47
2019-03-06T03:40:04.326Z,20.50
2019-03-06T03:42:34.409Z,25.00
2019-03-06T03:45:04.830Z,21.63
2019-03-06T03:47:34.798Z,25.17
2019-03-06T03:50:06.695Z,23.13
2019-03-06T03:52:37.783Z,22.50
2019-03-06T03:55:17.219Z,22.63
2019-03-06T03:57:48.267Z,23.83
2019-03-06T04:00:23.696Z,21.53
2019-03-06T04:02:53.247Z,21.83
2019-03-06T04:05:25.690Z,22.27
2019-03-06T04:07:55.704Z,22.73
2019-03-06T04:10:26.250Z,22.90
2019-03-06T04:12:57.319Z,27.37
2019-03-06T04:15:27.296Z,26.27
2019-03-06T04:17:58.564Z,25.07
2019-03-06T04:20:28.428Z,26.87
2019-03-06T04:22:59.431Z,27.20
2019-03-06T04:25:29.368Z,25.77
2019-03-06T04:27:59.207Z,28.73
2019-03-06T04:30:28.450Z,29.63
2019-03-06T04:33:01.430Z,29.17
2019-03-06T04:35:31.267Z,27.33
2019-03-06T04:38:04.531Z,29.43
2019-03-06T04:40:35.686Z,29.33
2019-03-06T04:43:08.595Z,27.03
2019-03-06T04:45:39.486Z,29.17
2019-03-06T04:48:29.757Z,29.50
2019-03-06T04:50:59.785Z,29.23
2019-03-06T04:56:00.502Z,29.60
2019-03-06T04:58:30.437Z,27.13
2019-03-06T05:01:00.339Z,29.50
2019-03-06T05:03:31.219Z,31.20
2019-03-06T05:06:02.050Z,33.53
2019-03-06T05:08:32.145Z,29.23
2019-03-06T05:11:01.462Z,28.93
2019-03-06T05:13:33.803Z,33.13
2019-03-06T05:16:04.893Z,30.53
2019-03-06T05:18:36.324Z,33.53
2019-03-06T05:21:07.210Z,35.20
2019-03-06T05:23:38.188Z,28.43
2019-03-06T05:26:09.220Z,29.63
2019-03-06T05:28:40.289Z,30.47
2019-03-06T05:31:09.934Z,31.52
2019-03-06T05:33:39.746Z,33.83
2019-03-06T05:36:22.851Z,28.70
2019-03-06T05:39:07.126Z,32.70
2019-03-06T05:41:40.022Z,28.53
2019-03-06T05:44:09.874Z,32.00
2019-03-06T05:46:39.785Z,33.10
2019-03-06T05:49:13.021Z,31.20
2019-03-06T05:51:44.371Z,29.60
2019-03-06T05:54:15.359Z,33.42
2019-03-06T05:56:45.313Z,37.07
2019-03-06T05:59:16.099Z,34.73
2019-03-06T06:01:46.958Z,30.23
2019-03-06T06:04:17.938Z,36.10
2019-03-06T06:06:47.918Z,37.10
2019-03-06T06:09:17.327Z,32.83
2019-03-06T06:11:47.251Z,31.73
2019-03-06T06:14:18.359Z,36.00
2019-03-06T06:16:49.323Z,34.17
2019-03-06T06:19:20.143Z,30.70
2019-03-06T06:21:57.640Z,34.70
2019-03-06T06:24:28.434Z,33.90
2019-03-06T06:27:00.858Z,34.27
2019-03-06T06:29:33.079Z,32.90
2019-03-06T06:32:03.062Z,33.50
2019-03-06T06:34:32.858Z,32.73
2019-03-06T06:37:05.315Z,33.57
2019-03-06T06:39:38.496Z,34.07
2019-03-06T06:42:09.500Z,33.43
2019-03-06T06:44:40.979Z,37.40
2019-03-06T06:47:11.938Z,32.90
2019-03-06T06:49:46.103Z,33.90
2019-03-06T06:52:21.778Z,28.45
2019-03-06T06:55:16.026Z,30.93
2019-03-06T06:57:52.620Z,29.77
2019-03-06T07:00:56.970Z,30.60
2019-03-06T07:03:41.382Z,27.73
2019-03-06T07:06:13.955Z,27.23
2019-03-06T07:08:49.340Z,30.07
2019-03-06T07:11:20.822Z,28.53
2019-03-06T07:13:58.532Z,24.33
2019-03-06T07:16:46.426Z,23.33
2019-03-06T07:19:17.843Z,21.53
2019-03-06T07:21:54.361Z,23.70
2019-03-06T07:24:31.992Z,21.37
2019-03-06T07:27:15.709Z,22.90
2019-03-06T07:29:54.331Z,21.60
2019-03-06T07:32:25.774Z,21.80
2019-03-06T07:35:48.865Z,18.93
2019-03-06T07:38:19.827Z,19.70
2019-03-06T07:40:57.120Z,21.10
2019-03-06T07:43:45.563Z,20.13
2019-03-06T07:46:33.394Z,20.55
2019-03-06T07:49:21.976Z,18.57
2019-03-06T07:52:03.963Z,20.93
2019-03-06T07:54:53.606Z,19.03
2019-03-06T07:57:24.499Z,24.37
2019-03-06T07:59:56.631Z,20.07
2019-03-06T08:02:32.390Z,20.70
2019-03-06T08:05:01.623Z,18.63
2019-03-06T08:07:34.031Z,16.80
2019-03-06T08:10:12.887Z,18.93
2019-03-06T08:12:43.704Z,18.63
2019-03-06T08:15:17.902Z,16.83
2019-03-06T08:17:53.355Z,14.13
2019-03-06T08:20:28.591Z,16.13
2019-03-06T08:23:16.163Z,15.20
2019-03-06T08:25:45.220Z,14.17
2019-03-06T08:28:16.380Z,15.00
2019-03-06T08:30:53.946Z,16.83
2019-03-06T08:33:23.902Z,14.03
2019-03-06T08:35:53.847Z,14.67
2019-03-06T08:38:26.145Z,13.60
2019-03-06T08:41:03.843Z,14.60
2019-03-06T08:43:27.602Z,16.00
2019-03-06T08:45:59.164Z,12.23
2019-03-06T08:48:48.591Z,13.30
2019-03-06T08:51:25.742Z,12.75
2019-03-06T08:54:03.001Z,12.43
2019-03-06T08:56:40.332Z,12.93
2019-03-06T08:59:21.906Z,12.50
2019-03-06T09:02:01.249Z,13.83
2019-03-06T09:04:33.995Z,12.67
2019-03-06T09:07:11.446Z,12.20
2019-03-06T09:09:47.003Z,13.47
2019-03-06T09:12:34.296Z,12.18
2019-03-06T09:15:08.098Z,11.30
2019-03-06T09:17:39.693Z,12.67
2019-03-06T09:20:23.794Z,13.63
2019-03-06T09:22:59.331Z,12.40
2019-03-06T09:25:30.770Z,12.50
2019-03-06T09:28:03.224Z,14.13
2019-03-06T09:30:37.889Z,13.53
2019-03-06T09:33:12.571Z,13.70
2019-03-06T09:35:58.999Z,32.27
2019-03-06T09:38:46.293Z,15.87
2019-03-06T09:41:27.563Z,13.13
2019-03-06T09:44:00.078Z,26.47
2019-03-06T09:46:38.169Z,14.00
2019-03-06T09:49:28.791Z,11.03
2019-03-06T09:52:00.767Z,13.33
2019-03-06T09:54:45.437Z,11.63
2019-03-06T09:57:17.940Z,13.57
2019-03-06T09:59:52.280Z,12.27
2019-03-06T10:02:33.658Z,10.50
2019-03-06T10:05:05.935Z,9.47
2019-03-06T10:07:54.893Z,10.00
2019-03-06T10:10:46.028Z,16.07
2019-03-06T10:13:21.376Z,13.03
2019-03-06T10:15:52.874Z,12.30
2019-03-06T10:18:26.854Z,13.13
2019-03-06T10:20:56.274Z,9.67
2019-03-06T10:23:27.117Z,13.17
2019-03-06T10:25:57.194Z,15.03
2019-03-06T10:28:28.195Z,9.80
2019-03-06T10:31:02.673Z,9.87
2019-03-06T10:33:31.126Z,7.83
2019-03-06T10:36:01.457Z,10.07
2019-03-06T10:38:31.462Z,13.97
2019-03-06T10:41:02.492Z,9.83
2019-03-06T10:43:33.498Z,11.30
2019-03-06T10:46:04.270Z,11.33
2019-03-06T10:48:34.295Z,14.37
2019-03-06T10:51:06.841Z,9.83
2019-03-06T10:56:10.448Z,12.33
2019-03-06T10:58:40.191Z,29.33
2019-03-06T11:01:11.599Z,8.30
2019-03-06T11:03:43.947Z,32.87
2019-03-06T11:06:14.919Z,10.67
2019-03-06T11:08:45.749Z,7.53
2019-03-06T11:11:17.166Z,8.85
2019-03-06T11:13:48.198Z,6.50
2019-03-06T11:16:18.112Z,7.60
2019-03-06T11:18:49.191Z,7.63
2019-03-06T11:21:20.946Z,19.87
2019-03-06T11:23:52.009Z,11.33
2019-03-06T11:26:22.714Z,8.00
2019-03-06T11:28:53.874Z,5.80
2019-03-06T11:31:23.359Z,6.97
2019-03-06T11:33:52.747Z,10.43
2019-03-06T11:36:23.677Z,7.00
2019-03-06T11:38:54.669Z,13.57
2019-03-06T11:41:24.653Z,7.20
2019-03-06T11:43:55.076Z,8.23
2019-03-06T11:46:25.063Z,6.97
2019-03-06T11:48:56.289Z,8.87
2019-03-06T11:51:26.964Z,13.13
2019-03-06T11:53:58.179Z,20.07
2019-03-06T11:56:29.720Z,12.13
2019-03-06T11:58:59.634Z,11.17
2019-03-06T12:01:32.524Z,7.83
2019-03-06T12:04:03.514Z,12.23
2019-03-06T12:06:33.367Z,20.77
2019-03-06T12:09:04.547Z,7.93
2019-03-06T12:11:35.803Z,10.17
2019-03-06T12:14:10.435Z,9.33
2019-03-06T12:16:43.773Z,9.77
2019-03-06T12:19:15.276Z,8.33
2019-03-06T12:21:45.263Z,10.50
2019-03-06T12:24:16.459Z,12.07
2019-03-06T12:26:46.259Z,13.37
2019-03-06T12:29:15.540Z,9.20
2019-03-06T12:31:46.837Z,18.67
2019-03-06T12:34:16.856Z,14.77
2019-03-06T12:36:48.159Z,10.97
2019-03-06T12:39:19.168Z,7.70
2019-03-06T12:41:49.898Z,7.60
2019-03-06T12:44:21.123Z,6.90
2019-03-06T12:46:52.059Z,10.33
2019-03-06T12:49:23.100Z,10.83
2019-03-06T12:51:54.602Z,6.13
2019-03-06T12:54:25.893Z,9.80
2019-03-06T12:56:55.975Z,10.03
2019-03-06T12:59:26.931Z,8.00
2019-03-06T13:01:59.410Z,6.70
2019-03-06T13:04:53.282Z,7.27
2019-03-06T13:07:23.667Z,13.77
2019-03-06T13:09:54.655Z,6.43
2019-03-06T13:12:25.928Z,24.37
2019-03-06T13:14:58.628Z,19.30
2019-03-06T13:17:31.661Z,13.30
2019-03-06T13:20:01.431Z,16.60
2019-03-06T13:22:32.323Z,10.03
2019-03-06T13:25:03.320Z,13.87
2019-03-06T13:27:34.233Z,14.23
2019-03-06T13:30:04.519Z,19.47
2019-03-06T13:32:35.286Z,9.33
2019-03-06T13:35:07.351Z,13.87
2019-03-06T13:37:37.419Z,8.63
2019-03-06T13:40:08.099Z,9.17
2019-03-06T13:42:37.979Z,7.93
2019-03-06T13:45:10.159Z,10.10
2019-03-06T13:47:40.211Z,6.87
2019-03-06T13:50:12.243Z,6.47
2019-03-06T13:52:42.182Z,8.53
2019-03-06T13:55:13.513Z,7.67
2019-03-06T13:57:44.460Z,9.20
2019-03-06T14:00:18.299Z,7.97
2019-03-06T14:02:51.604Z,9.20
2019-03-06T14:05:21.635Z,7.13
2019-03-06T14:07:56.237Z,8.00
2019-03-06T14:10:26.498Z,6.95
2019-03-06T14:12:57.699Z,6.43
2019-03-06T14:15:27.794Z,7.03
2019-03-06T14:17:58.862Z,6.50
2019-03-06T14:20:32.472Z,11.73
2019-03-06T14:23:03.351Z,18.70
2019-03-06T14:25:33.239Z,21.80
2019-03-06T14:28:07.708Z,23.73
2019-03-06T14:30:39.532Z,8.77
2019-03-06T14:33:10.690Z,6.43
2019-03-06T14:35:41.847Z,16.90
2019-03-06T14:38:13.045Z,13.37
2019-03-06T14:40:44.925Z,10.50
2019-03-06T14:43:17.043Z,8.70
2019-03-06T14:45:52.018Z,9.87
2019-03-06T14:48:21.673Z,7.77
2019-03-06T14:50:52.564Z,8.10
2019-03-06T14:53:22.462Z,7.93
2019-03-06T14:55:53.632Z,13.97
2019-03-06T14:58:23.434Z,12.80
2019-03-06T15:00:54.391Z,10.27
2019-03-06T15:03:26.625Z,11.60
2019-03-06T15:05:56.596Z,11.20
2019-03-06T15:08:29.525Z,11.40
2019-03-06T15:11:00.686Z,8.33
2019-03-06T15:13:31.484Z,11.80
2019-03-06T15:16:02.624Z,8.33
2019-03-06T15:18:33.622Z,12.07
2019-03-06T15:21:04.538Z,77.57
2019-03-06T15:23:36.582Z,19.00
2019-03-06T15:26:09.900Z,7.90
2019-03-06T15:28:40.970Z,8.43
2019-03-06T15:31:13.887Z,12.43
2019-03-06T15:33:44.786Z,21.77
2019-03-06T15:36:18.209Z,23.57
2019-03-06T15:38:48.557Z,24.13
2019-03-06T15:41:18.370Z,10.03
2019-03-06T15:43:49.357Z,18.03
2019-03-06T15:46:21.730Z,13.67
2019-03-06T15:48:54.907Z,15.23
2019-03-06T15:51:27.605Z,9.23
2019-03-06T15:53:58.956Z,16.57
2019-03-06T15:56:29.020Z,19.37
2019-03-06T15:58:58.774Z,16.70
2019-03-06T16:01:33.337Z,15.47
2019-03-06T16:04:04.393Z,9.63
2019-03-06T16:06:35.677Z,11.33
2019-03-06T16:09:09.122Z,13.68
2019-03-06T16:11:41.643Z,43.63
2019-03-06T16:14:11.707Z,45.07
2019-03-06T16:16:45.425Z,68.43
2019-03-06T16:19:16.446Z,85.77
2019-03-06T16:21:46.344Z,77.00
2019-03-06T16:24:16.293Z,145.35
2019-03-06T16:26:47.552Z,161.70
2019-03-06T16:29:19.725Z,118.47
2019-03-06T16:31:49.771Z,268.67
2019-03-06T16:34:20.804Z,86.90
2019-03-06T16:36:51.686Z,145.57
2019-03-06T16:39:25.545Z,202.50
2019-03-06T16:41:55.422Z,86.87
2019-03-06T16:44:28.274Z,55.50
2019-03-06T16:47:06.414Z,72.37
2019-03-06T16:49:31.566Z,43.43
2019-03-06T16:52:02.571Z,81.13
2019-03-06T16:54:33.572Z,38.33
2019-03-06T16:57:04.522Z,35.73
2019-03-06T16:59:35.535Z,46.73
2019-03-06T17:02:07.356Z,51.20
2019-03-06T17:04:37.252Z,63.00
2019-03-06T17:07:08.254Z,52.83
2019-03-06T17:09:39.295Z,63.53
2019-03-06T17:12:10.386Z,95.80
2019-03-06T17:14:41.469Z,87.70
2019-03-06T17:17:12.394Z,101.10
2019-03-06T17:19:42.628Z,55.33
2019-03-06T17:22:13.355Z,75.20
2019-03-06T17:24:43.306Z,114.33
2019-03-06T17:27:14.239Z,99.17
2019-03-06T17:29:45.822Z,100.87
2019-03-06T17:32:15.888Z,83.87
2019-03-06T17:34:46.778Z,93.93
2019-03-06T17:37:17.820Z,91.60
2019-03-06T17:39:47.643Z,72.30
2019-03-06T17:42:18.871Z,41.73
2019-03-06T17:44:49.682Z,53.00
2019-03-06T17:47:20.478Z,51.70
2019-03-06T17:49:51.274Z,76.10
2019-03-06T17:52:22.160Z,68.77
2019-03-06T17:54:52.423Z,40.33
2019-03-06T17:57:23.254Z,27.50
2019-03-06T17:59:54.259Z,34.80
2019-03-06T18:02:26.500Z,26.63
2019-03-06T18:04:56.395Z,32.63
2019-03-06T18:07:29.623Z,27.17
2019-03-06T18:10:00.608Z,27.13
2019-03-06T18:12:31.987Z,32.00
2019-03-06T18:15:02.873Z,44.17
2019-03-06T18:17:33.733Z,38.00
2019-03-06T18:20:04.081Z,54.80
2019-03-06T18:22:38.852Z,52.23
2019-03-06T18:25:13.316Z,60.17
2019-03-06T18:27:43.384Z,48.30
2019-03-06T18:30:19.791Z,54.83
2019-03-06T18:32:51.531Z,50.33
2019-03-06T18:35:26.429Z,51.53
2019-03-06T18:37:57.427Z,49.77
2019-03-06T18:40:28.976Z,34.87
2019-03-06T18:43:00.029Z,54.33
2019-03-06T18:45:31.283Z,38.53
2019-03-06T18:48:04.215Z,29.60
2019-03-06T18:50:35.082Z,46.57
2019-03-06T18:53:05.907Z,27.93
2019-03-06T18:55:36.698Z,27.97
2019-03-06T18:58:06.677Z,33.27
2019-03-06T19:00:39.077Z,29.30
2019-03-06T19:03:13.314Z,42.48
2019-03-06T19:05:45.620Z,32.27
2019-03-06T19:08:15.551Z,24.77
2019-03-06T19:10:46.577Z,28.87
2019-03-06T19:13:16.432Z,27.67
2019-03-06T19:15:48.658Z,23.30
2019-03-06T19:18:19.656Z,18.23
2019-03-06T19:20:49.509Z,18.90
2019-03-06T19:23:22.351Z,44.08
2019-03-06T19:25:54.745Z,17.70
2019-03-06T19:28:27.620Z,28.13
2019-03-06T19:30:58.383Z,33.10
2019-03-06T19:33:29.736Z,26.93
2019-03-06T19:36:00.502Z,28.77
2019-03-06T19:38:32.763Z,29.13
2019-03-06T19:41:05.841Z,27.07
2019-03-06T19:43:36.783Z,43.53
2019-03-06T19:46:06.645Z,27.43
2019-03-06T19:48:37.765Z,30.60
2019-03-06T19:51:11.440Z,39.10
2019-03-06T19:53:42.552Z,26.20
2019-03-06T19:56:31.813Z,28.33
2019-03-06T19:59:02.977Z,26.63
2019-03-06T20:01:33.811Z,26.10
2019-03-06T20:04:05.004Z,32.60
2019-03-06T20:06:36.501Z,26.80
2019-03-06T20:09:09.655Z,20.07
2019-03-06T20:11:43.796Z,38.47
2019-03-06T20:14:14.640Z,31.33
2019-03-06T20:16:44.475Z,31.07
2019-03-06T20:19:13.819Z,38.20
2019-03-06T20:21:44.694Z,25.53
2019-03-06T20:24:17.103Z,32.20
2019-03-06T20:26:48.234Z,35.97
2019-03-06T20:29:19.160Z,28.03
2019-03-06T20:31:51.594Z,26.00
2019-03-06T20:34:21.506Z,38.10
2019-03-06T20:36:52.862Z,29.13
2019-03-06T20:39:24.443Z,29.20
2019-03-06T20:41:55.264Z,28.30
2019-03-06T20:44:27.955Z,23.67
2019-03-06T20:47:01.119Z,28.47
2019-03-06T20:49:33.589Z,37.97
2019-03-06T20:52:03.373Z,49.40
2019-03-06T20:54:34.250Z,29.83
2019-03-06T20:57:05.144Z,33.33
2019-03-06T20:59:37.334Z,47.63
2019-03-06T21:02:08.360Z,38.50
2019-03-06T21:04:40.671Z,25.27
2019-03-06T21:07:11.680Z,45.70
2019-03-06T21:09:41.707Z,50.40
2019-03-06T21:12:12.618Z,26.43
2019-03-06T21:14:46.924Z,34.47
2019-03-06T21:17:17.373Z,46.13
2019-03-06T21:19:47.584Z,23.63
2019-03-06T21:22:17.585Z,25.32
2019-03-06T21:24:51.074Z,41.67
2019-03-06T21:27:20.902Z,37.75
2019-03-06T21:29:50.819Z,25.00
2019-03-06T21:32:21.781Z,27.30
2019-03-06T21:34:52.707Z,42.47
2019-03-06T21:37:22.669Z,21.27
2019-03-06T21:39:53.798Z,22.63
2019-03-06T21:42:29.214Z,37.20
2019-03-06T21:45:00.572Z,50.93
2019-03-06T21:47:31.369Z,24.93
2019-03-06T21:50:02.347Z,22.10
2019-03-06T21:52:32.307Z,27.30
2019-03-06T21:55:05.099Z,26.70
2019-03-06T21:57:37.403Z,26.53
2019-03-06T22:00:11.547Z,25.47
2019-03-06T22:02:42.752Z,37.35
2019-03-06T22:05:13.542Z,27.87
2019-03-06T22:07:44.502Z,26.77
2019-03-06T22:10:17.355Z,23.33
2019-03-06T22:12:48.561Z,34.63
2019-03-06T22:15:23.918Z,32.00
2019-03-06T22:17:56.929Z,23.67
2019-03-06T22:20:27.147Z,28.33
2019-03-06T22:22:58.036Z,27.73
2019-03-06T22:25:27.939Z,26.73
2019-03-06T22:27:58.836Z,21.93
2019-03-06T22:30:28.818Z,25.27
2019-03-06T22:32:59.830Z,25.27
2019-03-06T22:35:29.723Z,23.27
2019-03-06T22:38:00.071Z,19.93
2019-03-06T22:40:29.958Z,20.53
2019-03-06T22:43:03.795Z,24.37
2019-03-06T22:45:35.193Z,27.43
2019-03-06T22:48:06.023Z,18.57
2019-03-06T22:50:37.171Z,23.87
2019-03-06T22:53:07.039Z,23.63
2019-03-06T22:55:39.207Z,19.50
2019-03-06T22:58:08.955Z,23.50
2019-03-06T23:00:43.347Z,19.73
2019-03-06T23:03:14.520Z,26.87
2019-03-06T23:05:45.738Z,19.33
2019-03-06T23:08:18.096Z,18.20
2019-03-06T23:10:49.056Z,21.27
2019-03-06T23:13:19.988Z,23.87
2019-03-06T23:15:51.478Z,18.03
2019-03-06T23:18:24.453Z,14.58
2019-03-06T23:20:55.440Z,18.73
2019-03-06T23:23:26.416Z,15.83
2019-03-06T23:25:57.698Z,14.83
2019-03-06T23:28:28.631Z,16.77
2019-03-06T23:30:58.510Z,18.90
2019-03-06T23:33:28.528Z,16.67
2019-03-06T23:35:59.412Z,12.67
2019-03-06T23:38:30.230Z,19.50
2019-03-06T23:41:01.072Z,22.90
2019-03-06T23:43:32.023Z,16.70
2019-03-06T23:46:03.482Z,18.50
2019-03-06T23:48:34.362Z,16.50
2019-03-06T23:51:06.773Z,17.70
2019-03-06T23:53:37.678Z,16.83
2019-03-06T23:56:08.431Z,16.17
2019-03-06T23:58:39.387Z,16.83
